createdAt,value
2016-05-13T00:00:45.245Z,23.1
2016-05-13T00:01:45.248Z,23.06
2016-05-13T00:02:45.594Z,23.09
2016-05-13T00:03:45.285Z,23.04
2016-05-13T00:04:44.960Z,23.07
2016-05-13T00:05:45.338Z,23.09
2016-05-13T00:06:45.418Z,23.06
2016-05-13T00:07:45.327Z,23.06
2016-05-13T00:08:45.549Z,23.07
2016-05-13T00:09:44.988Z,23.06
2016-05-13T00:10:45.319Z,23.07
2016-05-13T00:11:45.338Z,23.01
2016-05-13T00:12:45.341Z,23.06
2016-05-13T00:13:45.030Z,23.07
2016-05-13T00:14:45.190Z,23.06
2016-05-13T00:15:45.348Z,23.04
2016-05-13T00:16:45.367Z,23.06
2016-05-13T00:17:45.494Z,23.07
2016-05-13T00:18:45.387Z,23.04
2016-05-13T00:19:45.376Z,23.03
2016-05-13T00:20:45.393Z,23.03
2016-05-13T00:21:45.381Z,23.04
2016-05-13T00:22:45.398Z,23.01
2016-05-13T00:23:45.417Z,23.04
2016-05-13T00:24:45.420Z,23.06
2016-05-13T00:25:45.406Z,23.04
2016-05-13T00:26:45.425Z,23.03
2016-05-13T00:27:45.459Z,23.01
2016-05-13T00:28:45.461Z,23.01
2016-05-13T00:29:45.448Z,23.01
2016-05-13T00:30:45.483Z,23.01
2016-05-13T00:31:45.469Z,22.99
2016-05-13T00:32:45.504Z,23.01
2016-05-13T00:33:45.491Z,23.01
2016-05-13T00:34:45.494Z,23.01
2016-05-13T00:35:45.496Z,23.04
2016-05-13T00:36:45.358Z,23.06
2016-05-13T00:37:45.516Z,23.04
2016-05-13T00:38:45.363Z,23.04
2016-05-13T00:39:45.522Z,23.07
2016-05-13T00:40:45.541Z,23
2016-05-13T00:41:45.544Z,23
2016-05-13T00:42:45.390Z,23.07
2016-05-13T00:43:45.533Z,23.06
2016-05-13T00:44:45.551Z,23.04
2016-05-13T00:45:45.570Z,23.06
2016-05-13T00:46:45.573Z,23
2016-05-13T00:47:45.935Z,23.07
2016-05-13T00:48:45.609Z,23.04
2016-05-13T00:49:45.581Z,23.06
2016-05-13T00:50:45.614Z,23.07
2016-05-13T00:51:45.289Z,23.09
2016-05-13T00:52:45.464Z,23.01
2016-05-13T00:53:45.466Z,22.92
2016-05-13T00:54:45.641Z,22.97
2016-05-13T00:55:45.643Z,23.04
2016-05-13T00:56:45.646Z,22.86
2016-05-13T00:57:45.681Z,23.01
2016-05-13T00:58:45.511Z,23.03
2016-05-13T00:59:45.498Z,23.03
2016-05-13T01:00:45.656Z,23.04
2016-05-13T01:01:45.702Z,23.01
2016-05-13T01:02:45.888Z,23.01
2016-05-13T01:03:45.826Z,23.01
2016-05-13T01:04:45.840Z,22.96
2016-05-13T01:05:45.918Z,22.99
2016-05-13T01:06:45.925Z,22.97
2016-05-13T01:07:45.975Z,22.99
2016-05-13T01:08:45.978Z,23.01
2016-05-13T01:09:46.012Z,22.99
2016-05-13T01:10:46.014Z,22.97
2016-05-13T01:11:46.062Z,22.96
2016-05-13T01:12:46.054Z,23
2016-05-13T01:13:45.906Z,23.01
2016-05-13T01:14:46.087Z,22.97
2016-05-13T01:15:46.095Z,23
2016-05-13T01:16:45.945Z,22.91
2016-05-13T01:17:46.137Z,22.91
2016-05-13T01:18:46.142Z,22.94
2016-05-13T01:19:45.990Z,22.94
2016-05-13T01:20:46.135Z,22.97
2016-05-13T01:21:46.014Z,22.96
2016-05-13T01:22:46.034Z,22.97
2016-05-13T01:23:46.177Z,22.91
2016-05-13T01:24:46.010Z,22.94
2016-05-13T01:25:46.185Z,23
2016-05-13T01:26:46.172Z,22.91
2016-05-13T01:27:46.191Z,22.96
2016-05-13T01:28:46.210Z,23.04
2016-05-13T01:29:46.212Z,22.94
2016-05-13T01:30:46.216Z,23.01
2016-05-13T01:31:46.235Z,22.96
2016-05-13T01:32:46.284Z,22.94
2016-05-13T01:33:46.255Z,22.94
2016-05-13T01:34:46.257Z,22.88
2016-05-13T01:35:46.260Z,22.96
2016-05-13T01:36:46.264Z,22.92
2016-05-13T01:37:46.282Z,22.99
2016-05-13T01:38:46.285Z,22.97
2016-05-13T01:39:46.115Z,22.96
2016-05-13T01:40:46.306Z,22.99
2016-05-13T01:41:46.309Z,22.99
2016-05-13T01:42:46.139Z,22.92
2016-05-13T01:43:46.298Z,22.94
2016-05-13T01:44:46.176Z,22.91
2016-05-13T01:45:46.319Z,22.89
2016-05-13T01:46:46.353Z,22.99
2016-05-13T01:47:46.028Z,22.94
2016-05-13T01:48:46.343Z,22.97
2016-05-13T01:49:46.206Z,22.94
2016-05-13T01:50:46.379Z,22.94
2016-05-13T01:51:46.367Z,22.86
2016-05-13T01:52:46.369Z,22.88
2016-05-13T01:53:46.403Z,22.96
2016-05-13T01:54:46.233Z,22.91
2016-05-13T01:55:46.424Z,22.88
2016-05-13T01:56:46.411Z,22.94
2016-05-13T01:57:46.445Z,22.91
2016-05-13T01:58:46.433Z,22.86
2016-05-13T01:59:46.450Z,22.91
2016-05-13T02:00:46.438Z,22.91
2016-05-13T02:01:46.455Z,22.88
2016-05-13T02:02:46.286Z,22.94
2016-05-13T02:03:46.305Z,22.88
2016-05-13T02:04:46.308Z,22.92
2016-05-13T02:05:46.310Z,22.89
2016-05-13T02:06:46.454Z,22.89
2016-05-13T02:07:46.487Z,22.92
2016-05-13T02:08:46.491Z,22.92
2016-05-13T02:09:46.337Z,22.92
2016-05-13T02:10:46.340Z,22.92
2016-05-13T02:11:46.530Z,22.92
2016-05-13T02:12:46.517Z,22.89
2016-05-13T02:13:46.378Z,22.92
2016-05-13T02:14:46.381Z,22.94
2016-05-13T02:15:46.401Z,22.92
2016-05-13T02:16:46.528Z,22.94
2016-05-13T02:17:46.859Z,22.86
2016-05-13T02:18:46.548Z,22.96
2016-05-13T02:19:46.581Z,22.92
2016-05-13T02:20:46.600Z,22.88
2016-05-13T02:21:46.572Z,22.92
2016-05-13T02:22:46.606Z,22.92
2016-05-13T02:23:46.593Z,22.91
2016-05-13T02:24:46.595Z,22.88
2016-05-13T02:25:46.286Z,22.96
2016-05-13T02:26:46.633Z,22.89
2016-05-13T02:27:46.619Z,22.92
2016-05-13T02:28:46.481Z,22.92
2016-05-13T02:29:46.625Z,22.91
2016-05-13T02:30:46.628Z,22.81
2016-05-13T02:31:46.661Z,22.96
2016-05-13T02:32:46.649Z,22.97
2016-05-13T02:33:46.651Z,22.89
2016-05-13T02:34:46.669Z,22.92
2016-05-13T02:35:46.687Z,22.84
2016-05-13T02:36:46.534Z,22.92
2016-05-13T02:37:46.553Z,22.82
2016-05-13T02:38:46.555Z,22.92
2016-05-13T02:39:46.543Z,22.82
2016-05-13T02:40:46.717Z,22.84
2016-05-13T02:41:46.579Z,22.85
2016-05-13T02:42:46.738Z,22.92
2016-05-13T02:43:46.740Z,22.96
2016-05-13T02:44:46.759Z,22.84
2016-05-13T02:45:46.746Z,22.91
2016-05-13T02:46:46.779Z,22.92
2016-05-13T02:47:47.204Z,22.84
2016-05-13T02:48:46.785Z,22.84
2016-05-13T02:49:46.788Z,22.86
2016-05-13T02:50:46.791Z,22.85
2016-05-13T02:51:46.778Z,22.84
2016-05-13T02:52:46.780Z,22.82
2016-05-13T02:53:46.798Z,22.76
2016-05-13T02:54:46.645Z,22.92
2016-05-13T02:55:46.803Z,22.84
2016-05-13T02:56:46.823Z,22.82
2016-05-13T02:57:46.809Z,22.84
2016-05-13T02:58:46.844Z,22.82
2016-05-13T02:59:46.846Z,22.85
2016-05-13T03:00:46.864Z,22.79
2016-05-13T03:01:46.852Z,22.82
2016-05-13T03:02:46.947Z,22.82
2016-05-13T03:03:46.872Z,22.79
2016-05-13T03:04:46.907Z,22.89
2016-05-13T03:05:46.910Z,22.84
2016-05-13T03:06:46.896Z,22.82
2016-05-13T03:07:46.883Z,22.82
2016-05-13T03:08:46.918Z,22.79
2016-05-13T03:09:46.921Z,22.85
2016-05-13T03:10:46.938Z,22.81
2016-05-13T03:11:46.926Z,22.89
2016-05-13T03:12:46.787Z,22.82
2016-05-13T03:13:46.806Z,22.86
2016-05-13T03:14:46.965Z,22.86
2016-05-13T03:15:46.951Z,22.81
2016-05-13T03:16:46.985Z,22.84
2016-05-13T03:17:47.692Z,22.81
2016-05-13T03:18:46.975Z,22.86
2016-05-13T03:19:46.978Z,22.84
2016-05-13T03:20:47.011Z,22.86
2016-05-13T03:21:46.983Z,22.86
2016-05-13T03:22:47.002Z,22.78
2016-05-13T03:23:46.864Z,22.85
2016-05-13T03:24:47.039Z,22.82
2016-05-13T03:25:47.025Z,22.79
2016-05-13T03:26:47.044Z,22.86
2016-05-13T03:27:46.875Z,22.81
2016-05-13T03:28:47.049Z,22.84
2016-05-13T03:29:47.067Z,22.84
2016-05-13T03:30:46.930Z,22.85
2016-05-13T03:31:46.900Z,22.82
2016-05-13T03:32:47.075Z,22.84
2016-05-13T03:33:47.063Z,22.81
2016-05-13T03:34:47.097Z,22.85
2016-05-13T03:35:47.100Z,22.88
2016-05-13T03:36:46.961Z,22.85
2016-05-13T03:37:47.136Z,22.85
2016-05-13T03:38:47.123Z,22.82
2016-05-13T03:39:47.110Z,22.85
2016-05-13T03:40:47.128Z,22.86
2016-05-13T03:41:46.975Z,22.82
2016-05-13T03:42:47.165Z,22.82
2016-05-13T03:43:47.168Z,22.82
2016-05-13T03:44:47.140Z,22.85
2016-05-13T03:45:47.173Z,22.82
2016-05-13T03:46:47.176Z,22.85
2016-05-13T03:47:47.538Z,22.81
2016-05-13T03:48:47.196Z,22.84
2016-05-13T03:49:47.199Z,22.84
2016-05-13T03:50:47.218Z,22.86
2016-05-13T03:51:47.564Z,22.82
2016-05-13T03:52:47.223Z,22.84
2016-05-13T03:53:47.257Z,22.82
2016-05-13T03:54:47.245Z,22.81
2016-05-13T03:55:47.059Z,22.84
2016-05-13T03:56:47.234Z,22.81
2016-05-13T03:57:47.252Z,22.82
2016-05-13T03:58:47.255Z,22.86
2016-05-13T03:59:47.273Z,22.84
2016-05-13T04:00:47.103Z,22.84
2016-05-13T04:01:47.311Z,22.85
2016-05-13T04:02:47.141Z,22.85
2016-05-13T04:03:47.300Z,22.86
2016-05-13T04:04:47.552Z,22.86
2016-05-13T04:05:47.617Z,22.81
2016-05-13T04:06:47.291Z,22.84
2016-05-13T04:07:47.670Z,22.81
2016-05-13T04:08:47.313Z,22.81
2016-05-13T04:09:47.425Z,22.82
2016-05-13T04:10:47.177Z,22.82
2016-05-13T04:11:47.212Z,22.84
2016-05-13T04:12:47.652Z,22.86
2016-05-13T04:13:47.577Z,22.85
2016-05-13T04:14:47.376Z,22.85
2016-05-13T04:15:47.082Z,22.81
2016-05-13T04:16:47.365Z,22.85
2016-05-13T04:17:47.274Z,22.81
2016-05-13T04:18:47.231Z,22.82
2016-05-13T04:19:47.405Z,22.85
2016-05-13T04:20:47.408Z,22.82
2016-05-13T04:21:47.410Z,22.85
2016-05-13T04:22:47.460Z,22.82
2016-05-13T04:23:47.447Z,22.82
2016-05-13T04:24:47.668Z,22.82
2016-05-13T04:25:47.639Z,22.82
2016-05-13T04:26:47.456Z,22.86
2016-05-13T04:27:47.473Z,22.84
2016-05-13T04:28:47.476Z,22.84
2016-05-13T04:29:47.636Z,22.85
2016-05-13T04:30:47.497Z,22.86
2016-05-13T04:31:47.312Z,22.86
2016-05-13T04:32:47.721Z,22.86
2016-05-13T04:33:47.317Z,22.79
2016-05-13T04:34:47.352Z,22.81
2016-05-13T04:35:47.511Z,22.82
2016-05-13T04:36:47.544Z,22.82
2016-05-13T04:37:47.532Z,22.82
2016-05-13T04:38:47.535Z,22.84
2016-05-13T04:39:47.756Z,22.84
2016-05-13T04:40:47.555Z,22.79
2016-05-13T04:41:47.574Z,22.79
2016-05-13T04:42:47.654Z,22.86
2016-05-13T04:43:47.563Z,22.85
2016-05-13T04:44:47.581Z,22.84
2016-05-13T04:45:47.741Z,22.81
2016-05-13T04:46:47.588Z,22.79
2016-05-13T04:47:47.527Z,22.86
2016-05-13T04:48:47.607Z,22.86
2016-05-13T04:49:47.439Z,22.81
2016-05-13T04:50:47.519Z,22.86
2016-05-13T04:51:47.881Z,22.82
2016-05-13T04:52:47.463Z,22.81
2016-05-13T04:53:47.496Z,22.82
2016-05-13T04:54:47.655Z,22.82
2016-05-13T04:55:47.658Z,22.81
2016-05-13T04:56:47.348Z,22.88
2016-05-13T04:57:47.664Z,22.82
2016-05-13T04:58:47.682Z,22.88
2016-05-13T04:59:47.684Z,22.84
2016-05-13T05:00:47.750Z,22.81
2016-05-13T05:01:47.705Z,22.86
2016-05-13T05:02:47.599Z,22.84
2016-05-13T05:03:48.039Z,22.79
2016-05-13T05:04:47.698Z,22.84
2016-05-13T05:05:47.717Z,22.78
2016-05-13T05:06:47.719Z,22.86
2016-05-13T05:07:47.769Z,22.82
2016-05-13T05:08:47.724Z,22.85
2016-05-13T05:09:47.805Z,22.84
2016-05-13T05:10:47.776Z,22.81
2016-05-13T05:11:47.780Z,22.84
2016-05-13T05:12:47.751Z,22.82
2016-05-13T05:13:47.785Z,22.78
2016-05-13T05:14:48.085Z,22.85
2016-05-13T05:15:47.790Z,22.79
2016-05-13T05:16:47.793Z,22.81
2016-05-13T05:17:48.092Z,22.84
2016-05-13T05:18:47.845Z,22.85
2016-05-13T05:19:47.973Z,22.84
2016-05-13T05:20:47.851Z,22.84
2016-05-13T05:21:47.681Z,22.76
2016-05-13T05:22:47.871Z,22.84
2016-05-13T05:23:47.530Z,22.86
2016-05-13T05:24:47.971Z,22.84
2016-05-13T05:25:47.879Z,22.89
2016-05-13T05:26:48.101Z,22.79
2016-05-13T05:27:47.869Z,22.84
2016-05-13T05:28:47.887Z,22.84
2016-05-13T05:29:47.733Z,22.84
2016-05-13T05:30:47.892Z,22.84
2016-05-13T05:31:48.209Z,22.81
2016-05-13T05:32:47.758Z,22.86
2016-05-13T05:33:47.901Z,22.85
2016-05-13T05:34:48.185Z,22.85
2016-05-13T05:35:48.125Z,22.76
2016-05-13T05:36:47.941Z,22.89
2016-05-13T05:37:47.943Z,22.86
2016-05-13T05:38:47.961Z,22.84
2016-05-13T05:39:47.980Z,22.85
2016-05-13T05:40:47.827Z,22.86
2016-05-13T05:41:47.985Z,22.81
2016-05-13T05:42:48.222Z,22.78
2016-05-13T05:43:48.130Z,22.82
2016-05-13T05:44:47.837Z,22.79
2016-05-13T05:45:47.839Z,22.82
2016-05-13T05:46:48.060Z,22.73
2016-05-13T05:47:47.689Z,22.81
2016-05-13T05:48:48.254Z,22.81
2016-05-13T05:49:48.226Z,22.78
2016-05-13T05:50:48.024Z,22.76
2016-05-13T05:51:48.027Z,22.75
2016-05-13T05:52:48.234Z,22.85
2016-05-13T05:53:48.048Z,22.73
2016-05-13T05:54:48.254Z,22.84
2016-05-13T05:55:48.053Z,22.79
2016-05-13T05:56:48.229Z,22.81
2016-05-13T05:57:48.075Z,22.81
2016-05-13T05:58:48.093Z,22.84
2016-05-13T05:59:48.190Z,22.84
2016-05-13T06:00:48.114Z,22.86
2016-05-13T06:01:48.226Z,22.81
2016-05-13T06:02:48.338Z,22.78
2016-05-13T06:03:48.106Z,22.81
2016-05-13T06:04:48.141Z,22.79
2016-05-13T06:05:47.987Z,22.82
2016-05-13T06:06:48.114Z,22.84
2016-05-13T06:07:48.149Z,22.84
2016-05-13T06:08:48.011Z,22.81
2016-05-13T06:09:48.342Z,22.76
2016-05-13T06:10:47.875Z,22.84
2016-05-13T06:11:47.862Z,22.81
2016-05-13T06:12:47.880Z,22.85
2016-05-13T06:13:48.040Z,22.84
2016-05-13T06:14:48.277Z,22.85
2016-05-13T06:15:48.248Z,22.78
2016-05-13T06:16:48.204Z,22.84
2016-05-13T06:17:48.207Z,22.76
2016-05-13T06:18:48.241Z,22.84
2016-05-13T06:19:48.338Z,22.79
2016-05-13T06:20:48.215Z,22.79
2016-05-13T06:21:48.249Z,22.81
2016-05-13T06:22:48.096Z,22.81
2016-05-13T06:23:48.270Z,22.81
2016-05-13T06:24:48.116Z,22.84
2016-05-13T06:25:48.384Z,22.81
2016-05-13T06:26:48.262Z,22.82
2016-05-13T06:27:48.406Z,22.82
2016-05-13T06:28:48.284Z,22.73
2016-05-13T06:29:48.301Z,22.76
2016-05-13T06:30:48.195Z,22.76
2016-05-13T06:31:48.306Z,22.73
2016-05-13T06:32:48.326Z,22.84
2016-05-13T06:33:48.172Z,22.7
2016-05-13T06:34:48.330Z,22.78
2016-05-13T06:35:48.349Z,22.73
2016-05-13T06:36:48.055Z,22.82
2016-05-13T06:37:48.182Z,22.82
2016-05-13T06:38:48.342Z,22.84
2016-05-13T06:39:48.406Z,22.79
2016-05-13T06:40:48.393Z,22.76
2016-05-13T06:41:48.365Z,22.78
2016-05-13T06:42:48.384Z,22.79
2016-05-13T06:43:48.448Z,22.73
2016-05-13T06:44:48.404Z,22.79
2016-05-13T06:45:48.407Z,22.73
2016-05-13T06:46:48.410Z,22.84
2016-05-13T06:47:48.132Z,22.78
2016-05-13T06:48:48.415Z,22.84
2016-05-13T06:49:48.433Z,22.84
2016-05-13T06:50:48.482Z,22.71
2016-05-13T06:51:48.313Z,22.84
2016-05-13T06:52:48.457Z,22.85
2016-05-13T06:53:48.459Z,22.79
2016-05-13T06:54:48.462Z,22.78
2016-05-13T06:55:48.465Z,22.73
2016-05-13T06:56:48.484Z,22.84
2016-05-13T06:57:48.487Z,22.82
2016-05-13T06:58:48.504Z,22.76
2016-05-13T06:59:48.397Z,22.82
2016-05-13T07:00:48.526Z,22.81
2016-05-13T07:01:48.498Z,22.75
2016-05-13T07:02:48.640Z,22.82
2016-05-13T07:03:48.518Z,22.82
2016-05-13T07:04:48.552Z,22.81
2016-05-13T07:05:48.539Z,22.78
2016-05-13T07:06:48.558Z,22.81
2016-05-13T07:07:48.544Z,22.84
2016-05-13T07:08:48.563Z,22.82
2016-05-13T07:09:48.596Z,22.75
2016-05-13T07:10:48.584Z,22.76
2016-05-13T07:11:48.586Z,22.75
2016-05-13T07:12:48.588Z,22.84
2016-05-13T07:13:48.608Z,22.78
2016-05-13T07:14:48.610Z,22.73
2016-05-13T07:15:48.597Z,22.75
2016-05-13T07:16:48.616Z,22.85
2016-05-13T07:17:48.618Z,22.73
2016-05-13T07:18:48.620Z,22.75
2016-05-13T07:19:48.639Z,22.79
2016-05-13T07:20:48.501Z,22.84
2016-05-13T07:21:48.488Z,22.82
2016-05-13T07:22:48.647Z,22.76
2016-05-13T07:23:48.682Z,22.84
2016-05-13T07:24:48.512Z,22.81
2016-05-13T07:25:48.529Z,22.82
2016-05-13T07:26:48.674Z,22.73
2016-05-13T07:27:48.692Z,22.81
2016-05-13T07:28:48.695Z,22.81
2016-05-13T07:29:48.557Z,22.84
2016-05-13T07:30:48.543Z,22.86
2016-05-13T07:31:48.734Z,22.81
2016-05-13T07:32:48.581Z,22.86
2016-05-13T07:33:48.583Z,22.86
2016-05-13T07:34:48.758Z,22.81
2016-05-13T07:35:48.760Z,22.82
2016-05-13T07:36:48.747Z,22.81
2016-05-13T07:37:48.609Z,22.84
2016-05-13T07:38:48.769Z,22.82
2016-05-13T07:39:48.614Z,22.84
2016-05-13T07:40:48.617Z,22.84
2016-05-13T07:41:48.808Z,22.88
2016-05-13T07:42:48.795Z,22.81
2016-05-13T07:43:48.658Z,22.85
2016-05-13T07:44:48.800Z,22.82
2016-05-13T07:45:48.818Z,22.86
2016-05-13T07:46:48.821Z,22.81
2016-05-13T07:47:48.699Z,22.78
2016-05-13T07:48:48.842Z,22.82
2016-05-13T07:49:48.861Z,22.78
2016-05-13T07:50:48.832Z,22.89
2016-05-13T07:51:48.866Z,22.86
2016-05-13T07:52:48.853Z,22.85
2016-05-13T07:53:48.871Z,22.84
2016-05-13T07:54:48.890Z,22.82
2016-05-13T07:55:48.892Z,22.85
2016-05-13T07:56:48.738Z,22.82
2016-05-13T07:57:48.913Z,22.82
2016-05-13T07:58:48.916Z,22.88
2016-05-13T07:59:48.918Z,22.81
2016-05-13T08:00:48.624Z,22.91
2016-05-13T08:01:48.924Z,22.88
2016-05-13T08:02:48.926Z,21.7
2016-05-13T08:03:48.789Z,21.78
2016-05-13T08:04:49.384Z,21.58
2016-05-13T08:05:48.810Z,20.51
2016-05-13T08:06:48.953Z,20.05
2016-05-13T08:07:48.987Z,20.05
2016-05-13T08:08:48.959Z,19.87
2016-05-13T08:09:48.962Z,19.9
2016-05-13T08:10:48.980Z,19.63
2016-05-13T08:11:48.997Z,19.47
2016-05-13T08:12:49.000Z,19.55
2016-05-13T08:13:48.675Z,19.17
2016-05-13T08:14:48.834Z,19.2
2016-05-13T08:15:49.009Z,19.49
2016-05-13T08:16:49.011Z,20.07
2016-05-13T08:17:49.030Z,20.57
2016-05-13T08:18:48.861Z,20.97
2016-05-13T08:19:49.019Z,21.18
2016-05-13T08:20:48.866Z,21.33
2016-05-13T08:21:49.040Z,21.53
2016-05-13T08:22:49.044Z,21.59
2016-05-13T08:23:49.046Z,21.68
2016-05-13T08:24:49.032Z,21.71
2016-05-13T08:25:49.052Z,21.9
2016-05-13T08:26:49.054Z,21.93
2016-05-13T08:27:49.072Z,21.85
2016-05-13T08:28:49.059Z,22.04
2016-05-13T08:29:49.109Z,22.08
2016-05-13T08:30:49.096Z,22.18
2016-05-13T08:31:49.114Z,22.2
2016-05-13T08:32:49.226Z,22.22
2016-05-13T08:33:48.948Z,22.14
2016-05-13T08:34:49.106Z,22.27
2016-05-13T08:35:48.953Z,22.23
2016-05-13T08:36:49.128Z,22.33
2016-05-13T08:37:49.131Z,22.44
2016-05-13T08:38:49.134Z,22.27
2016-05-13T08:39:48.995Z,22.41
2016-05-13T08:40:49.139Z,22.39
2016-05-13T08:41:49.156Z,22.34
2016-05-13T08:42:49.175Z,22.39
2016-05-13T08:43:49.178Z,22.46
2016-05-13T08:44:49.180Z,22.46
2016-05-13T08:45:49.011Z,22.41
2016-05-13T08:46:49.030Z,22.49
2016-05-13T08:47:49.189Z,22.48
2016-05-13T08:48:49.082Z,22.48
2016-05-13T08:49:49.210Z,22.51
2016-05-13T08:50:48.899Z,22.54
2016-05-13T08:51:49.058Z,22.51
2016-05-13T08:52:49.077Z,22.52
2016-05-13T08:53:49.221Z,22.55
2016-05-13T08:54:49.238Z,22.52
2016-05-13T08:55:49.257Z,22.54
2016-05-13T08:56:49.088Z,22.63
2016-05-13T08:57:49.262Z,22.59
2016-05-13T08:58:49.265Z,22.61
2016-05-13T08:59:49.283Z,22.71
2016-05-13T09:00:49.286Z,22.7
2016-05-13T09:01:49.273Z,22.63
2016-05-13T09:02:49.323Z,22.71
2016-05-13T09:03:49.293Z,22.7
2016-05-13T09:04:49.156Z,22.73
2016-05-13T09:05:49.299Z,22.7
2016-05-13T09:06:49.333Z,22.7
2016-05-13T09:07:49.304Z,22.73
2016-05-13T09:08:49.354Z,22.7
2016-05-13T09:09:49.185Z,22.64
2016-05-13T09:10:49.187Z,22.73
2016-05-13T09:11:49.347Z,22.78
2016-05-13T09:12:49.365Z,22.75
2016-05-13T09:13:49.368Z,22.7
2016-05-13T09:14:49.370Z,22.81
2016-05-13T09:15:49.389Z,22.76
2016-05-13T09:16:49.375Z,22.81
2016-05-13T09:17:49.675Z,22.76
2016-05-13T09:18:49.272Z,22.81
2016-05-13T09:19:49.259Z,22.82
2016-05-13T09:20:49.433Z,22.86
2016-05-13T09:21:49.264Z,22.82
2016-05-13T09:22:49.439Z,22.85
2016-05-13T09:23:49.426Z,22.82
2016-05-13T09:24:49.460Z,22.86
2016-05-13T09:25:49.478Z,22.85
2016-05-13T09:26:49.466Z,22.84
2016-05-13T09:27:49.468Z,22.79
2016-05-13T09:28:49.486Z,22.82
2016-05-13T09:29:49.473Z,22.86
2016-05-13T09:30:49.179Z,22.92
2016-05-13T09:31:49.479Z,22.88
2016-05-13T09:32:50.029Z,22.89
2016-05-13T09:33:49.499Z,22.89
2016-05-13T09:34:49.502Z,22.92
2016-05-13T09:35:49.521Z,22.86
2016-05-13T09:36:49.367Z,22.92
2016-05-13T09:37:49.385Z,22.94
2016-05-13T09:38:49.528Z,22.86
2016-05-13T09:39:49.407Z,22.94
2016-05-13T09:40:49.550Z,22.94
2016-05-13T09:41:49.568Z,22.94
2016-05-13T09:42:50.758Z,22.96
2016-05-13T09:43:50.042Z,23.01
2016-05-13T09:44:49.576Z,22.94
2016-05-13T09:45:49.610Z,22.96
2016-05-13T09:46:49.613Z,22.89
2016-05-13T09:48:11.803Z,23.01
2016-05-13T09:48:54.008Z,22.99
2016-05-13T09:49:49.636Z,23
2016-05-13T09:50:49.624Z,23.04
2016-05-13T09:51:49.641Z,23.03
2016-05-13T09:52:49.488Z,23.03
2016-05-13T09:53:49.647Z,23.06
2016-05-13T09:54:49.649Z,22.97
2016-05-13T09:55:49.527Z,23.01
2016-05-13T09:56:49.530Z,23.03
2016-05-13T09:57:49.688Z,23.06
2016-05-13T09:58:49.552Z,23
2016-05-13T09:59:49.679Z,23.01
2016-05-13T10:00:49.697Z,23.01
2016-05-13T10:01:49.699Z,23.04
2016-05-13T10:02:49.656Z,23.03
2016-05-13T10:03:49.752Z,23.09
2016-05-13T10:04:49.739Z,23.07
2016-05-13T10:05:49.585Z,23.07
2016-05-13T10:06:49.760Z,23.06
2016-05-13T10:07:49.625Z,23.07
2016-05-13T10:08:49.655Z,23.12
2016-05-13T10:09:49.732Z,23.1
2016-05-13T10:10:49.934Z,23.1
2016-05-13T10:11:49.979Z,23.16
2016-05-13T10:12:50.013Z,23.12
2016-05-13T10:13:50.047Z,23.12
2016-05-13T10:14:50.049Z,23.14
2016-05-13T10:15:50.066Z,23.14
2016-05-13T10:16:50.116Z,23.12
2016-05-13T10:17:50.332Z,23.16
2016-05-13T10:18:49.965Z,23.21
2016-05-13T10:19:50.130Z,23.18
2016-05-13T10:20:50.138Z,23.1
2016-05-13T10:21:50.177Z,23.15
2016-05-13T10:22:50.215Z,23.16
2016-05-13T10:23:50.188Z,23.22
2016-05-13T10:24:50.208Z,23.19
2016-05-13T10:25:50.057Z,23.18
2016-05-13T10:26:50.250Z,23.21
2016-05-13T10:27:50.253Z,23.32
2016-05-13T10:28:50.225Z,23.29
2016-05-13T10:29:50.244Z,23.18
2016-05-13T10:30:50.263Z,23.16
2016-05-13T10:31:50.267Z,23.28
2016-05-13T10:32:50.130Z,23.26
2016-05-13T10:33:50.257Z,23.19
2016-05-13T10:34:50.276Z,23.26
2016-05-13T10:35:50.139Z,23.16
2016-05-13T10:36:50.298Z,23.25
2016-05-13T10:37:50.363Z,23.16
2016-05-13T10:38:50.303Z,23.15
2016-05-13T10:39:50.322Z,23.22
2016-05-13T10:40:50.325Z,23.26
2016-05-13T10:41:50.327Z,23.22
2016-05-13T10:42:50.330Z,23.16
2016-05-13T10:43:50.364Z,23.26
2016-05-13T10:44:50.351Z,23.29
2016-05-13T10:45:50.229Z,23.22
2016-05-13T10:46:50.402Z,23.16
2016-05-13T10:47:50.249Z,23.22
2016-05-13T10:48:51.018Z,23.26
2016-05-13T10:49:50.380Z,23.25
2016-05-13T10:50:50.399Z,23.14
2016-05-13T10:51:50.417Z,23.26
2016-05-13T10:52:50.419Z,23.26
2016-05-13T10:53:50.468Z,23.16
2016-05-13T10:54:50.284Z,23.28
2016-05-13T10:55:50.287Z,23.25
2016-05-13T10:56:50.476Z,23.29
2016-05-13T10:57:50.152Z,23.35
2016-05-13T10:58:50.310Z,23.25
2016-05-13T10:59:50.453Z,23.28
2016-05-13T11:00:50.487Z,23.28
2016-05-13T11:01:50.318Z,23.32
2016-05-13T11:02:50.806Z,23.28
2016-05-13T11:03:50.855Z,23.32
2016-05-13T11:04:50.514Z,23.28
2016-05-13T11:05:50.658Z,23.34
2016-05-13T11:06:50.503Z,23.35
2016-05-13T11:07:50.538Z,23.32
2016-05-13T11:08:50.541Z,23.41
2016-05-13T11:09:50.544Z,23.35
2016-05-13T11:10:50.389Z,23.41
2016-05-13T11:11:50.236Z,23.35
2016-05-13T11:12:50.567Z,23.32
2016-05-13T11:13:50.554Z,23.38
2016-05-13T11:14:50.416Z,23.34
2016-05-13T11:15:50.746Z,23.4
2016-05-13T11:16:50.437Z,23.35
2016-05-13T11:17:51.408Z,23.38
2016-05-13T11:18:50.833Z,23.34
2016-05-13T11:19:50.601Z,23.34
2016-05-13T11:20:50.619Z,23.38
2016-05-13T11:21:50.654Z,23.41
2016-05-13T11:22:50.672Z,23.4
2016-05-13T11:23:51.971Z,23.41
2016-05-13T11:24:50.646Z,23.41
2016-05-13T11:25:50.649Z,23.37
2016-05-13T11:26:50.964Z,23.4
2016-05-13T11:27:51.013Z,23.38
2016-05-13T11:28:50.673Z,23.42
2016-05-13T11:29:50.675Z,23.41
2016-05-13T11:30:50.803Z,23.38
2016-05-13T11:31:50.868Z,23.42
2016-05-13T11:32:51.183Z,23.34
2016-05-13T11:33:50.717Z,23.45
2016-05-13T11:34:50.626Z,23.47
2016-05-13T11:35:50.581Z,23.55
2016-05-13T11:36:50.819Z,23.52
2016-05-13T11:37:50.869Z,23.41
2016-05-13T11:38:50.747Z,23.5
2016-05-13T11:39:50.749Z,23.52
2016-05-13T11:40:50.767Z,23.53
2016-05-13T11:41:50.754Z,23.48
2016-05-13T11:42:50.616Z,23.5
2016-05-13T11:43:51.135Z,23.53
2016-05-13T11:44:50.793Z,23.56
2016-05-13T11:45:50.780Z,23.52
2016-05-13T11:46:50.658Z,23.56
2016-05-13T11:47:50.505Z,23.53
2016-05-13T11:48:50.836Z,23.55
2016-05-13T11:49:50.823Z,23.55
2016-05-13T11:50:50.950Z,23.56
2016-05-13T11:51:50.843Z,23.52
2016-05-13T11:52:51.049Z,23.56
2016-05-13T11:53:50.912Z,23.55
2016-05-13T11:54:50.727Z,23.55
2016-05-13T11:55:51.229Z,23.47
2016-05-13T11:56:50.904Z,23.41
2016-05-13T11:57:50.735Z,23.48
2016-05-13T11:58:50.893Z,23.52
2016-05-13T11:59:50.896Z,23.53
2016-05-13T12:00:50.930Z,23.45
2016-05-13T12:01:50.762Z,23.5
2016-05-13T12:02:50.795Z,23.5
2016-05-13T12:03:50.939Z,23.47
2016-05-13T12:04:51.207Z,23.48
2016-05-13T12:05:50.944Z,23.5
2016-05-13T12:06:51.197Z,23.53
2016-05-13T12:07:51.215Z,23.48
2016-05-13T12:08:50.983Z,23.56
2016-05-13T12:09:50.970Z,23.44
2016-05-13T12:10:51.286Z,23.42
2016-05-13T12:11:51.100Z,23.4
2016-05-13T12:12:51.150Z,23.37
2016-05-13T12:13:51.011Z,23.42
2016-05-13T12:14:51.327Z,23.38
2016-05-13T12:15:51.033Z,23.37
2016-05-13T12:16:51.067Z,23.37
2016-05-13T12:17:51.663Z,23.44
2016-05-13T12:18:51.041Z,23.4
2016-05-13T12:19:50.888Z,23.44
2016-05-13T12:20:51.188Z,23.37
2016-05-13T12:21:51.143Z,23.38
2016-05-13T12:22:50.927Z,23.53
2016-05-13T12:23:51.429Z,23.44
2016-05-13T12:24:51.105Z,23.41
2016-05-13T12:25:51.107Z,23.41
2016-05-13T12:26:51.251Z,23.41
2016-05-13T12:27:51.129Z,23.56
2016-05-13T12:28:51.302Z,23.53
2016-05-13T12:29:51.149Z,23.5
2016-05-13T12:30:50.996Z,23.5
2016-05-13T12:31:50.998Z,23.5
2016-05-13T12:32:51.501Z,23.59
2016-05-13T12:33:51.160Z,23.56
2016-05-13T12:34:51.006Z,23.56
2016-05-13T12:35:51.400Z,23.62
2016-05-13T12:36:51.028Z,23.59
2016-05-13T12:37:51.545Z,23.6
2016-05-13T12:38:51.784Z,23.63
2016-05-13T12:39:51.223Z,23.7
2016-05-13T12:40:51.225Z,23.67
2016-05-13T12:41:51.495Z,23.62
2016-05-13T12:42:51.231Z,23.71
2016-05-13T12:43:51.531Z,23.7
2016-05-13T12:44:51.081Z,23.71
2016-05-13T12:45:51.114Z,23.59
2016-05-13T12:46:51.445Z,23.56
2016-05-13T12:47:51.838Z,23.67
2016-05-13T12:48:51.200Z,23.75
2016-05-13T12:49:51.281Z,23.71
2016-05-13T12:50:51.283Z,23.74
2016-05-13T12:51:51.318Z,23.79
2016-05-13T12:52:51.649Z,23.77
2016-05-13T12:53:51.323Z,23.77
2016-05-13T12:54:51.326Z,23.79